sensor_id;sensor_type;location;lat;lon;timestamp;pressure;altitude;pressure_sealevel;temperature;humidity
70370;BME280;57790;51.356;-2.906;2023-11-21T00:00:38;101863.31;;;12.63;100.00
70370;BME280;57790;51.356;-2.906;2023-11-21T00:03:39;101870.28;;;12.64;100.00
70370;BME280;57790;51.356;-2.906;2023-11-21T00:06:40;101874.41;;;12.59;100.00
70370;BME280;57790;51.356;-2.906;2023-11-21T00:09:41;101872.97;;;12.64;100.00
70370;BME280;57790;51.356;-2.906;2023-11-21T00:12:42;101876.59;;;12.63;100.00
70370;BME280;57790;51.356;-2.906;2023-11-21T00:15:42;101882.06;;;12.62;100.00
70370;BME280;57790;51.356;-2.906;2023-11-21T00:18:43;101873.41;;;12.60;100.00
70370;BME280;57790;51.356;-2.906;2023-11-21T00:21:44;101885.41;;;12.64;100.00
70370;BME280;57790;51.356;-2.906;2023-11-21T00:24:45;101881.25;;;12.61;100.00
70370;BME280;57790;51.356;-2.906;2023-11-21T00:27:46;101887.25;;;12.63;100.00
70370;BME280;57790;51.356;-2.906;2023-11-21T00:30:46;101890.47;;;12.57;100.00
70370;BME280;57790;51.356;-2.906;2023-11-21T00:33:47;101892.88;;;12.60;100.00
70370;BME280;57790;51.356;-2.906;2023-11-21T00:36:47;101892.88;;;12.60;100.00
70370;BME280;57790;51.356;-2.906;2023-11-21T00:39:47;101900.28;;;12.57;100.00
70370;BME280;57790;51.356;-2.906;2023-11-21T00:42:48;101902.94;;;12.57;100.00
70370;BME280;57790;51.356;-2.906;2023-11-21T00:45:48;101919.88;;;12.56;100.00
70370;BME280;57790;51.356;-2.906;2023-11-21T00:48:49;101910.09;;;12.56;100.00
70370;BME280;57790;51.356;-2.906;2023-11-21T00:51:49;101912.59;;;12.58;100.00
70370;BME280;57790;51.356;-2.906;2023-11-21T00:54:50;101904.63;;;12.58;100.00
70370;BME280;57790;51.356;-2.906;2023-11-21T00:57:51;101909.09;;;12.57;100.00
70370;BME280;57790;51.356;-2.906;2023-11-21T01:00:51;101905.34;;;12.60;100.00
70370;BME280;57790;51.356;-2.906;2023-11-21T01:03:52;101913.59;;;12.57;100.00
70370;BME280;57790;51.356;-2.906;2023-11-21T01:06:52;101908.09;;;12.58;100.00
70370;BME280;57790;51.356;-2.906;2023-11-21T01:09:52;101908.97;;;12.59;100.00
70370;BME280;57790;51.356;-2.906;2023-11-21T01:12:53;101909.41;;;12.54;100.00
70370;BME280;57790;51.356;-2.906;2023-11-21T01:15:54;101926.34;;;12.53;100.00
70370;BME280;57790;51.356;-2.906;2023-11-21T01:18:54;101933.03;;;12.57;100.00
70370;BME280;57790;51.356;-2.906;2023-11-21T01:21:55;101946.63;;;12.54;100.00
70370;BME280;57790;51.356;-2.906;2023-11-21T01:24:55;101949.00;;;12.57;100.00
70370;BME280;57790;51.356;-2.906;2023-11-21T01:27:56;101954.47;;;12.56;100.00
70370;BME280;57790;51.356;-2.906;2023-11-21T01:30:56;101963.03;;;12.59;100.00
70370;BME280;57790;51.356;-2.906;2023-11-21T01:33:58;101959.78;;;12.56;100.00
70370;BME280;57790;51.356;-2.906;2023-11-21T01:36:58;101977.56;;;12.55;100.00
70370;BME280;57790;51.356;-2.906;2023-11-21T01:39:59;101978.72;;;12.52;100.00
70370;BME280;57790;51.356;-2.906;2023-11-21T01:43:01;101987.81;;;12.50;100.00
70370;BME280;57790;51.356;-2.906;2023-11-21T01:46:05;101989.50;;;12.51;100.00
70370;BME280;57790;51.356;-2.906;2023-11-21T01:49:06;102002.50;;;12.54;100.00
70370;BME280;57790;51.356;-2.906;2023-11-21T01:52:07;102000.81;;;12.53;100.00
70370;BME280;57790;51.356;-2.906;2023-11-21T01:55:08;102010.47;;;12.54;100.00
70370;BME280;57790;51.356;-2.906;2023-11-21T01:58:09;102011.75;;;12.50;100.00
70370;BME280;57790;51.356;-2.906;2023-11-21T02:01:10;102016.09;;;12.51;100.00
70370;BME280;57790;51.356;-2.906;2023-11-21T02:04:10;102016.94;;;12.51;100.00
70370;BME280;57790;51.356;-2.906;2023-11-21T02:07:11;102020.56;;;12.50;100.00
70370;BME280;57790;51.356;-2.906;2023-11-21T02:10:11;102022.94;;;12.44;100.00
70370;BME280;57790;51.356;-2.906;2023-11-21T02:13:15;102031.91;;;12.43;100.00
70370;BME280;57790;51.356;-2.906;2023-11-21T02:16:16;102035.28;;;12.45;100.00
70370;BME280;57790;51.356;-2.906;2023-11-21T02:19:21;102035.56;;;12.42;100.00
70370;BME280;57790;51.356;-2.906;2023-11-21T02:22:23;102033.03;;;12.40;100.00
70370;BME280;57790;51.356;-2.906;2023-11-21T02:25:31;102036.69;;;12.39;100.00
70370;BME280;57790;51.356;-2.906;2023-11-21T02:28:32;102040.91;;;12.32;100.00
70370;BME280;57790;51.356;-2.906;2023-11-21T02:31:33;102046.78;;;12.36;100.00
70370;BME280;57790;51.356;-2.906;2023-11-21T02:34:33;102045.38;;;12.32;100.00
70370;BME280;57790;51.356;-2.906;2023-11-21T02:37:34;102044.56;;;12.31;100.00
70370;BME280;57790;51.356;-2.906;2023-11-21T02:40:35;102050.81;;;12.40;100.00
70370;BME280;57790;51.356;-2.906;2023-11-21T02:43:35;102042.16;;;12.38;100.00
70370;BME280;57790;51.356;-2.906;2023-11-21T02:46:37;102042.69;;;12.41;100.00
70370;BME280;57790;51.356;-2.906;2023-11-21T02:49:37;102045.09;;;12.35;100.00
70370;BME280;57790;51.356;-2.906;2023-11-21T02:52:38;102046.22;;;12.32;100.00
70370;BME280;57790;51.356;-2.906;2023-11-21T02:55:40;102053.06;;;12.35;100.00
70370;BME280;57790;51.356;-2.906;2023-11-21T02:58:44;102043.28;;;12.35;100.00
70370;BME280;57790;51.356;-2.906;2023-11-21T03:01:45;102057.56;;;12.34;100.00
70370;BME280;57790;51.356;-2.906;2023-11-21T03:04:46;102066.09;;;12.38;100.00
70370;BME280;57790;51.356;-2.906;2023-11-21T03:07:49;102079.66;;;12.35;100.00
70370;BME280;57790;51.356;-2.906;2023-11-21T03:10:49;102075.19;;;12.35;100.00
70370;BME280;57790;51.356;-2.906;2023-11-21T03:13:50;102079.53;;;12.36;100.00
70370;BME280;57790;51.356;-2.906;2023-11-21T03:16:50;102090.03;;;12.38;100.00
70370;BME280;57790;51.356;-2.906;2023-11-21T03:19:51;102092.81;;;12.36;100.00
70370;BME280;57790;51.356;-2.906;2023-11-21T03:22:52;102101.38;;;12.30;100.00
70370;BME280;57790;51.356;-2.906;2023-11-21T03:25:53;102113.41;;;12.34;100.00
70370;BME280;57790;51.356;-2.906;2023-11-21T03:28:54;102117.03;;;12.33;100.00
70370;BME280;57790;51.356;-2.906;2023-11-21T03:31:55;102120.09;;;12.38;100.00
70370;BME280;57790;51.356;-2.906;2023-11-21T03:34:57;102133.41;;;12.38;100.00
70370;BME280;57790;51.356;-2.906;2023-11-21T03:37:58;102135.94;;;12.40;100.00
70370;BME280;57790;51.356;-2.906;2023-11-21T03:40:58;102135.38;;;12.36;100.00
70370;BME280;57790;51.356;-2.906;2023-11-21T03:43:59;102143.78;;;12.32;100.00
70370;BME280;57790;51.356;-2.906;2023-11-21T03:46:59;102151.06;;;12.30;100.00
70370;BME280;57790;51.356;-2.906;2023-11-21T03:49:59;102155.66;;;12.28;100.00
70370;BME280;57790;51.356;-2.906;2023-11-21T03:53:00;102160.56;;;12.23;100.00
70370;BME280;57790;51.356;-2.906;2023-11-21T03:56:02;102172.88;;;12.24;100.00
70370;BME280;57790;51.356;-2.906;2023-11-21T03:59:03;102174.97;;;12.20;100.00
70370;BME280;57790;51.356;-2.906;2023-11-21T04:02:03;102171.63;;;12.18;100.00
70370;BME280;57790;51.356;-2.906;2023-11-21T04:05:04;102182.63;;;12.13;100.00
70370;BME280;57790;51.356;-2.906;2023-11-21T04:08:05;102180.53;;;12.07;100.00
70370;BME280;57790;51.356;-2.906;2023-11-21T04:11:05;102185.56;;;12.10;100.00
70370;BME280;57790;51.356;-2.906;2023-11-21T04:14:06;102187.81;;;12.15;100.00
70370;BME280;57790;51.356;-2.906;2023-11-21T04:17:06;102179.97;;;12.13;100.00
70370;BME280;57790;51.356;-2.906;2023-11-21T04:20:08;102197.75;;;12.13;100.00
70370;BME280;57790;51.356;-2.906;2023-11-21T04:23:09;102198.16;;;12.08;100.00
70370;BME280;57790;51.356;-2.906;2023-11-21T04:26:10;102201.94;;;12.06;100.00
70370;BME280;57790;51.356;-2.906;2023-11-21T04:29:11;102208.63;;;12.00;100.00
70370;BME280;57790;51.356;-2.906;2023-11-21T04:32:11;102213.47;;;11.85;100.00
70370;BME280;57790;51.356;-2.906;2023-11-21T04:35:12;102220.50;;;11.86;100.00
70370;BME280;57790;51.356;-2.906;2023-11-21T04:38:13;102217.63;;;11.78;100.00
70370;BME280;57790;51.356;-2.906;2023-11-21T04:41:13;102228.06;;;11.70;100.00
70370;BME280;57790;51.356;-2.906;2023-11-21T04:44:14;102232.16;;;11.74;100.00
70370;BME280;57790;51.356;-2.906;2023-11-21T04:47:16;102237.34;;;11.76;100.00
70370;BME280;57790;51.356;-2.906;2023-11-21T04:50:19;102246.00;;;11.78;100.00
70370;BME280;57790;51.356;-2.906;2023-11-21T04:53:20;102254.47;;;11.62;100.00
70370;BME280;57790;51.356;-2.906;2023-11-21T04:56:20;102262.28;;;11.63;100.00
70370;BME280;57790;51.356;-2.906;2023-11-21T04:59:21;102269.56;;;11.61;100.00
70370;BME280;57790;51.356;-2.906;2023-11-21T05:02:24;102280.06;;;11.63;100.00
70370;BME280;57790;51.356;-2.906;2023-11-21T05:05:25;102291.38;;;11.65;100.00
70370;BME280;57790;51.356;-2.906;2023-11-21T05:08:25;102298.66;;;11.63;100.00
70370;BME280;57790;51.356;-2.906;2023-11-21T05:11:27;102291.66;;;11.62;100.00
70370;BME280;57790;51.356;-2.906;2023-11-21T05:14:27;102302.06;;;11.54;100.00
70370;BME280;57790;51.356;-2.906;2023-11-21T05:17:28;102296.97;;;11.62;100.00
70370;BME280;57790;51.356;-2.906;2023-11-21T05:20:28;102309.28;;;11.63;100.00
70370;BME280;57790;51.356;-2.906;2023-11-21T05:23:29;102309.28;;;11.63;100.00
70370;BME280;57790;51.356;-2.906;2023-11-21T05:26:29;102315.69;;;11.60;100.00
70370;BME280;57790;51.356;-2.906;2023-11-21T05:29:29;102312.69;;;11.54;100.00
70370;BME280;57790;51.356;-2.906;2023-11-21T05:32:30;102320.34;;;11.47;100.00
70370;BME280;57790;51.356;-2.906;2023-11-21T05:35:30;102320.22;;;11.49;100.00
70370;BME280;57790;51.356;-2.906;2023-11-21T05:38:31;102330.28;;;11.45;100.00
70370;BME280;57790;51.356;-2.906;2023-11-21T05:41:31;102327.00;;;11.42;100.00
70370;BME280;57790;51.356;-2.906;2023-11-21T05:44:32;102335.06;;;11.30;100.00
70370;BME280;57790;51.356;-2.906;2023-11-21T05:47:32;102333.09;;;11.32;100.00
70370;BME280;57790;51.356;-2.906;2023-11-21T05:50:32;102344.81;;;11.30;100.00
70370;BME280;57790;51.356;-2.906;2023-11-21T05:53:33;102346.13;;;11.36;100.00
70370;BME280;57790;51.356;-2.906;2023-11-21T05:56:34;102350.75;;;11.22;100.00
70370;BME280;57790;51.356;-2.906;2023-11-21T05:59:34;102349.91;;;11.22;100.00
70370;BME280;57790;51.356;-2.906;2023-11-21T06:02:35;102354.25;;;11.23;100.00
70370;BME280;57790;51.356;-2.906;2023-11-21T06:05:35;102358.00;;;11.20;100.00
70370;BME280;57790;51.356;-2.906;2023-11-21T06:08:35;102366.22;;;11.17;100.00
70370;BME280;57790;51.356;-2.906;2023-11-21T06:11:36;102376.22;;;11.14;100.00
70370;BME280;57790;51.356;-2.906;2023-11-21T06:14:36;102383.97;;;11.17;100.00
70370;BME280;57790;51.356;-2.906;2023-11-21T06:17:37;102384.31;;;11.12;100.00
70370;BME280;57790;51.356;-2.906;2023-11-21T06:20:37;102372.66;;;11.03;100.00
70370;BME280;57790;51.356;-2.906;2023-11-21T06:23:38;102380.81;;;11.12;100.00
70370;BME280;57790;51.356;-2.906;2023-11-21T06:26:38;102382.56;;;11.01;100.00
70370;BME280;57790;51.356;-2.906;2023-11-21T06:29:39;102386.28;;;10.99;100.00
70370;BME280;57790;51.356;-2.906;2023-11-21T06:32:39;102388.84;;;11.00;100.00
70370;BME280;57790;51.356;-2.906;2023-11-21T06:35:40;102404.03;;;10.98;100.00
70370;BME280;57790;51.356;-2.906;2023-11-21T06:38:40;102408.84;;;11.05;100.00
70370;BME280;57790;51.356;-2.906;2023-11-21T06:41:41;102407.28;;;11.02;100.00
70370;BME280;57790;51.356;-2.906;2023-11-21T06:44:41;102419.59;;;11.03;100.00
70370;BME280;57790;51.356;-2.906;2023-11-21T06:47:42;102426.47;;;11.06;100.00
70370;BME280;57790;51.356;-2.906;2023-11-21T06:50:42;102433.13;;;11.00;100.00
70370;BME280;57790;51.356;-2.906;2023-11-21T06:53:43;102436.34;;;11.03;100.00
70370;BME280;57790;51.356;-2.906;2023-11-21T06:56:43;102445.03;;;11.06;100.00
70370;BME280;57790;51.356;-2.906;2023-11-21T06:59:44;102451.91;;;11.08;100.00
70370;BME280;57790;51.356;-2.906;2023-11-21T07:02:44;102454.34;;;11.00;100.00
70370;BME280;57790;51.356;-2.906;2023-11-21T07:05:45;102463.63;;;11.06;100.00
70370;BME280;57790;51.356;-2.906;2023-11-21T07:08:45;102467.34;;;11.14;100.00
70370;BME280;57790;51.356;-2.906;2023-11-21T07:11:48;102462.97;;;11.13;100.00
70370;BME280;57790;51.356;-2.906;2023-11-21T07:14:49;102463.50;;;11.07;100.00
70370;BME280;57790;51.356;-2.906;2023-11-21T07:17:49;102466.41;;;11.04;100.00
70370;BME280;57790;51.356;-2.906;2023-11-21T07:20:50;102478.44;;;11.08;100.00
70370;BME280;57790;51.356;-2.906;2023-11-21T07:23:50;102481.22;;;11.07;100.00
70370;BME280;57790;51.356;-2.906;2023-11-21T07:26:50;102486.78;;;11.15;100.00
70370;BME280;57790;51.356;-2.906;2023-11-21T07:29:51;102494.97;;;11.12;100.00
70370;BME280;57790;51.356;-2.906;2023-11-21T07:32:51;102498.34;;;11.14;100.00
70370;BME280;57790;51.356;-2.906;2023-11-21T07:35:52;102498.97;;;11.17;100.00
70370;BME280;57790;51.356;-2.906;2023-11-21T07:38:52;102507.75;;;11.18;100.00
70370;BME280;57790;51.356;-2.906;2023-11-21T07:41:53;102505.09;;;11.18;100.00
70370;BME280;57790;51.356;-2.906;2023-11-21T07:44:54;102508.47;;;11.20;100.00
70370;BME280;57790;51.356;-2.906;2023-11-21T07:47:54;102522.59;;;11.20;100.00
70370;BME280;57790;51.356;-2.906;2023-11-21T07:50:55;102520.78;;;11.21;100.00
70370;BME280;57790;51.356;-2.906;2023-11-21T07:53:56;102527.06;;;11.20;100.00
70370;BME280;57790;51.356;-2.906;2023-11-21T07:56:56;102533.47;;;11.17;100.00
70370;BME280;57790;51.356;-2.906;2023-11-21T07:59:56;102538.53;;;11.20;100.00
70370;BME280;57790;51.356;-2.906;2023-11-21T08:02:57;102537.09;;;11.16;100.00
70370;BME280;57790;51.356;-2.906;2023-11-21T08:05:58;102536.47;;;11.13;100.00
70370;BME280;57790;51.356;-2.906;2023-11-21T08:08:59;102541.31;;;11.08;100.00
70370;BME280;57790;51.356;-2.906;2023-11-21T08:12:00;102543.59;;;11.01;100.00
70370;BME280;57790;51.356;-2.906;2023-11-21T08:15:02;102549.88;;;11.00;100.00
70370;BME280;57790;51.356;-2.906;2023-11-21T08:18:03;102543.97;;;11.08;100.00
70370;BME280;57790;51.356;-2.906;2023-11-21T08:21:04;102555.78;;;11.03;100.00
70370;BME280;57790;51.356;-2.906;2023-11-21T08:24:06;102553.59;;;11.09;100.00
70370;BME280;57790;51.356;-2.906;2023-11-21T08:27:10;102559.63;;;11.11;100.00
70370;BME280;57790;51.356;-2.906;2023-11-21T08:30:12;102556.72;;;11.14;100.00
70370;BME280;57790;51.356;-2.906;2023-11-21T08:33:14;102554.31;;;11.11;100.00
70370;BME280;57790;51.356;-2.906;2023-11-21T08:36:14;102569.06;;;11.15;100.00
70370;BME280;57790;51.356;-2.906;2023-11-21T08:39:15;102571.81;;;11.13;100.00
70370;BME280;57790;51.356;-2.906;2023-11-21T08:42:16;102575.81;;;11.19;100.00
70370;BME280;57790;51.356;-2.906;2023-11-21T08:45:19;102584.25;;;11.24;100.00
70370;BME280;57790;51.356;-2.906;2023-11-21T08:48:19;102585.34;;;11.21;100.00
70370;BME280;57790;51.356;-2.906;2023-11-21T08:51:20;102611.88;;;11.21;100.00
70370;BME280;57790;51.356;-2.906;2023-11-21T08:54:21;102616.47;;;11.19;100.00
70370;BME280;57790;51.356;-2.906;2023-11-21T08:57:24;102620.09;;;11.29;100.00
70370;BME280;57790;51.356;-2.906;2023-11-21T09:00:25;102617.31;;;11.31;100.00
70370;BME280;57790;51.356;-2.906;2023-11-21T09:03:25;102628.28;;;11.26;100.00
70370;BME280;57790;51.356;-2.906;2023-11-21T09:06:26;102622.97;;;11.38;100.00
70370;BME280;57790;51.356;-2.906;2023-11-21T09:09:26;102615.75;;;11.28;100.00
70370;BME280;57790;51.356;-2.906;2023-11-21T09:12:26;102633.72;;;11.25;100.00
70370;BME280;57790;51.356;-2.906;2023-11-21T09:15:27;102640.25;;;11.32;100.00
70370;BME280;57790;51.356;-2.906;2023-11-21T09:18:27;102634.22;;;11.30;100.00
70370;BME280;57790;51.356;-2.906;2023-11-21T09:21:28;102647.25;;;11.33;100.00
70370;BME280;57790;51.356;-2.906;2023-11-21T09:24:28;102658.59;;;11.35;100.00
70370;BME280;57790;51.356;-2.906;2023-11-21T09:27:29;102642.91;;;11.32;100.00
70370;BME280;57790;51.356;-2.906;2023-11-21T09:30:29;102653.16;;;11.37;100.00
70370;BME280;57790;51.356;-2.906;2023-11-21T09:33:31;102661.25;;;11.35;100.00
70370;BME280;57790;51.356;-2.906;2023-11-21T09:36:31;102661.38;;;11.45;100.00
70370;BME280;57790;51.356;-2.906;2023-11-21T09:39:33;102668.13;;;11.38;100.00
70370;BME280;57790;51.356;-2.906;2023-11-21T09:42:39;102669.81;;;11.39;100.00
70370;BME280;57790;51.356;-2.906;2023-11-21T09:45:46;102670.53;;;11.41;100.00
70370;BME280;57790;51.356;-2.906;2023-11-21T09:48:50;102671.63;;;11.38;100.00
70370;BME280;57790;51.356;-2.906;2023-11-21T09:51:54;102679.22;;;11.43;100.00
70370;BME280;57790;51.356;-2.906;2023-11-21T09:54:56;102673.06;;;11.42;100.00
70370;BME280;57790;51.356;-2.906;2023-11-21T09:58:00;102674.16;;;11.40;100.00
70370;BME280;57790;51.356;-2.906;2023-11-21T10:01:01;102680.09;;;11.43;100.00
70370;BME280;57790;51.356;-2.906;2023-11-21T10:04:03;102676.69;;;11.52;100.00
70370;BME280;57790;51.356;-2.906;2023-11-21T10:07:04;102685.16;;;11.46;100.00
70370;BME280;57790;51.356;-2.906;2023-11-21T10:10:09;102689.63;;;11.46;100.00
70370;BME280;57790;51.356;-2.906;2023-11-21T10:13:11;102702.66;;;11.49;100.00
70370;BME280;57790;51.356;-2.906;2023-11-21T10:16:14;102702.06;;;11.45;100.00
70370;BME280;57790;51.356;-2.906;2023-11-21T10:19:16;102710.38;;;11.52;100.00
70370;BME280;57790;51.356;-2.906;2023-11-21T10:22:17;102713.75;;;11.54;100.00
70370;BME280;57790;51.356;-2.906;2023-11-21T10:25:19;102721.00;;;11.52;100.00
70370;BME280;57790;51.356;-2.906;2023-11-21T10:28:20;102722.34;;;11.46;100.00
70370;BME280;57790;51.356;-2.906;2023-11-21T10:31:21;102726.31;;;11.52;100.00
70370;BME280;57790;51.356;-2.906;2023-11-21T10:34:21;102736.81;;;11.53;100.00
70370;BME280;57790;51.356;-2.906;2023-11-21T10:37:22;102741.53;;;11.50;100.00
70370;BME280;57790;51.356;-2.906;2023-11-21T10:40:22;102743.09;;;11.52;100.00
70370;BME280;57790;51.356;-2.906;2023-11-21T10:43:25;102750.22;;;11.52;100.00
70370;BME280;57790;51.356;-2.906;2023-11-21T10:46:27;102750.72;;;11.57;100.00
70370;BME280;57790;51.356;-2.906;2023-11-21T10:49:27;102763.06;;;11.58;100.00
70370;BME280;57790;51.356;-2.906;2023-11-21T10:52:28;102753.50;;;11.55;100.00
70370;BME280;57790;51.356;-2.906;2023-11-21T10:55:29;102759.44;;;11.59;100.00
70370;BME280;57790;51.356;-2.906;2023-11-21T10:58:30;102750.72;;;11.57;100.00
70370;BME280;57790;51.356;-2.906;2023-11-21T11:01:32;102752.66;;;11.55;100.00
70370;BME280;57790;51.356;-2.906;2023-11-21T11:04:33;102748.19;;;11.55;100.00
70370;BME280;57790;51.356;-2.906;2023-11-21T11:07:40;102731.28;;;11.56;100.00
70370;BME280;57790;51.356;-2.906;2023-11-21T11:10:43;102735.88;;;11.54;100.00
70370;BME280;57790;51.356;-2.906;2023-11-21T11:13:46;102726.19;;;11.42;100.00
70370;BME280;57790;51.356;-2.906;2023-11-21T11:16:47;102719.44;;;11.49;100.00
70370;BME280;57790;51.356;-2.906;2023-11-21T11:19:49;102722.09;;;11.49;100.00
70370;BME280;57790;51.356;-2.906;2023-11-21T11:33:07;102723.56;;;11.53;100.00
70370;BME280;57790;51.356;-2.906;2023-11-21T11:36:17;102723.81;;;11.61;100.00
70370;BME280;57790;51.356;-2.906;2023-11-21T11:39:38;102727.06;;;11.65;100.00
70370;BME280;57790;51.356;-2.906;2023-11-21T11:42:39;102725.75;;;11.59;100.00
70370;BME280;57790;51.356;-2.906;2023-11-21T11:45:39;102724.28;;;11.67;100.00
70370;BME280;57790;51.356;-2.906;2023-11-21T11:48:41;102735.50;;;11.70;100.00
70370;BME280;57790;51.356;-2.906;2023-11-21T11:51:42;102739.84;;;11.71;100.00
70370;BME280;57790;51.356;-2.906;2023-11-21T11:54:43;102750.25;;;11.74;100.00
70370;BME280;57790;51.356;-2.906;2023-11-21T11:57:45;102754.38;;;11.78;100.00
70370;BME280;57790;51.356;-2.906;2023-11-21T12:00:51;102763.09;;;11.80;100.00
70370;BME280;57790;51.356;-2.906;2023-11-21T12:07:17;102764.16;;;11.78;100.00
70370;BME280;57790;51.356;-2.906;2023-11-21T12:10:22;102763.44;;;11.76;100.00
70370;BME280;57790;51.356;-2.906;2023-11-21T12:13:24;102772.63;;;11.83;100.00
70370;BME280;57790;51.356;-2.906;2023-11-21T12:16:25;102782.53;;;11.81;100.00
70370;BME280;57790;51.356;-2.906;2023-11-21T12:19:28;102776.25;;;11.82;100.00
70370;BME280;57790;51.356;-2.906;2023-11-21T12:22:28;102785.56;;;11.87;100.00
70370;BME280;57790;51.356;-2.906;2023-11-21T12:25:30;102780.00;;;11.90;100.00
70370;BME280;57790;51.356;-2.906;2023-11-21T12:28:34;102790.97;;;11.86;100.00
70370;BME280;57790;51.356;-2.906;2023-11-21T12:31:35;102791.22;;;11.83;100.00
70370;BME280;57790;51.356;-2.906;2023-11-21T12:34:36;102798.22;;;11.84;100.00
70370;BME280;57790;51.356;-2.906;2023-11-21T12:37:40;102793.75;;;11.84;100.00
70370;BME280;57790;51.356;-2.906;2023-11-21T12:40:44;102794.28;;;11.89;100.00
70370;BME280;57790;51.356;-2.906;2023-11-21T12:43:44;102796.81;;;11.91;100.00
70370;BME280;57790;51.356;-2.906;2023-11-21T12:46:45;102796.81;;;11.91;100.00
70370;BME280;57790;51.356;-2.906;2023-11-21T12:49:45;102793.06;;;11.94;100.00
70370;BME280;57790;51.356;-2.906;2023-11-21T12:52:46;102805.25;;;11.96;100.00
70370;BME280;57790;51.356;-2.906;2023-11-21T12:55:49;102805.38;;;11.95;100.00
70370;BME280;57790;51.356;-2.906;2023-11-21T12:58:54;102807.19;;;11.94;100.00
70370;BME280;57790;51.356;-2.906;2023-11-21T13:01:57;102801.16;;;11.92;100.00
70370;BME280;57790;51.356;-2.906;2023-11-21T13:05:00;102825.44;;;11.99;100.00
70370;BME280;57790;51.356;-2.906;2023-11-21T13:08:07;102827.75;;;12.03;100.00
70370;BME280;57790;51.356;-2.906;2023-11-21T13:11:10;102834.03;;;12.02;100.00
70370;BME280;57790;51.356;-2.906;2023-11-21T13:14:10;102837.28;;;12.06;100.00
70370;BME280;57790;51.356;-2.906;2023-11-21T13:17:11;102839.69;;;12.09;100.00
70370;BME280;57790;51.356;-2.906;2023-11-21T13:20:12;102854.22;;;12.05;100.00
70370;BME280;57790;51.356;-2.906;2023-11-21T13:23:16;102848.03;;;12.04;100.00
70370;BME280;57790;51.356;-2.906;2023-11-21T13:26:16;102850.81;;;12.03;100.00
70370;BME280;57790;51.356;-2.906;2023-11-21T13:29:17;102844.53;;;12.04;100.00
70370;BME280;57790;51.356;-2.906;2023-11-21T13:32:17;102848.16;;;12.03;100.00
70370;BME280;57790;51.356;-2.906;2023-11-21T13:35:21;102852.63;;;12.02;100.00
70370;BME280;57790;51.356;-2.906;2023-11-21T13:38:21;102848.38;;;12.00;100.00
70370;BME280;57790;51.356;-2.906;2023-11-21T13:41:25;102844.66;;;12.02;100.00
70370;BME280;57790;51.356;-2.906;2023-11-21T13:44:30;102848.03;;;12.04;100.00
70370;BME280;57790;51.356;-2.906;2023-11-21T13:47:38;102842.84;;;12.03;100.00
70370;BME280;57790;51.356;-2.906;2023-11-21T13:50:40;102834.88;;;12.03;100.00
70370;BME280;57790;51.356;-2.906;2023-11-21T13:53:48;102847.53;;;11.99;100.00
70370;BME280;57790;51.356;-2.906;2023-11-21T13:56:50;102847.44;;;12.01;100.00
70370;BME280;57790;51.356;-2.906;2023-11-21T13:59:51;102857.13;;;12.02;100.00
70370;BME280;57790;51.356;-2.906;2023-11-21T14:02:51;102847.31;;;12.02;100.00
70370;BME280;57790;51.356;-2.906;2023-11-21T14:05:52;102836.69;;;12.02;100.00
70370;BME280;57790;51.356;-2.906;2023-11-21T14:08:52;102847.69;;;12.09;100.00
70370;BME280;57790;51.356;-2.906;2023-11-21T14:11:57;102871.00;;;12.05;100.00
70370;BME280;57790;51.356;-2.906;2023-11-21T14:14:57;102870.63;;;12.10;100.00
70370;BME280;57790;51.356;-2.906;2023-11-21T14:17:59;102868.69;;;12.12;100.00
70370;BME280;57790;51.356;-2.906;2023-11-21T14:21:02;102881.03;;;12.13;100.00
70370;BME280;57790;51.356;-2.906;2023-11-21T14:24:03;102882.97;;;12.11;100.00
70370;BME280;57790;51.356;-2.906;2023-11-21T14:27:09;102892.16;;;12.07;100.00
70370;BME280;57790;51.356;-2.906;2023-11-21T14:30:10;102912.09;;;12.12;100.00
70370;BME280;57790;51.356;-2.906;2023-11-21T14:33:13;102911.25;;;12.12;100.00
70370;BME280;57790;51.356;-2.906;2023-11-21T14:36:16;102914.25;;;12.07;100.00
70370;BME280;57790;51.356;-2.906;2023-11-21T14:39:17;102906.16;;;12.09;100.00
70370;BME280;57790;51.356;-2.906;2023-11-21T14:42:23;102915.97;;;12.08;100.00
70370;BME280;57790;51.356;-2.906;2023-11-21T14:45:29;102912.56;;;12.06;100.00
70370;BME280;57790;51.356;-2.906;2023-11-21T14:48:30;102914.72;;;11.90;100.00
70370;BME280;57790;51.356;-2.906;2023-11-21T14:51:42;102918.09;;;11.92;100.00
70370;BME280;57790;51.356;-2.906;2023-11-21T14:55:01;102914.97;;;11.87;100.00
70370;BME280;57790;51.356;-2.906;2023-11-21T14:58:34;102905.50;;;11.83;100.00
70370;BME280;57790;51.356;-2.906;2023-11-21T15:01:37;102912.03;;;11.79;100.00
70370;BME280;57790;51.356;-2.906;2023-11-21T15:04:55;102916.00;;;11.84;100.00
70370;BME280;57790;51.356;-2.906;2023-11-21T15:08:02;102924.00;;;11.84;100.00
70370;BME280;57790;51.356;-2.906;2023-11-21T15:11:20;102931.84;;;11.86;100.00
70370;BME280;57790;51.356;-2.906;2023-11-21T15:14:25;102943.22;;;11.88;100.00
70370;BME280;57790;51.356;-2.906;2023-11-21T15:17:31;102941.63;;;11.85;100.00
70370;BME280;57790;51.356;-2.906;2023-11-21T15:20:32;102943.34;;;11.86;100.00
70370;BME280;57790;51.356;-2.906;2023-11-21T15:23:33;102953.22;;;11.84;100.00
70370;BME280;57790;51.356;-2.906;2023-11-21T15:26:35;102955.88;;;11.84;100.00
70370;BME280;57790;51.356;-2.906;2023-11-21T15:29:35;102958.97;;;11.78;100.00
70370;BME280;57790;51.356;-2.906;2023-11-21T15:32:35;102963.28;;;11.68;100.00
70370;BME280;57790;51.356;-2.906;2023-11-21T15:35:36;102975.00;;;11.66;100.00
70370;BME280;57790;51.356;-2.906;2023-11-21T15:38:38;102971.91;;;11.72;100.00